Time;durP1;ratioP1;P1;durP2;ratioP2;P2;SDS_P1;SDS_P2;PMS_P1;PMS_P2;Temp;Humidity;BMP_temperature;BMP_pressure;BME280_temperature;BME280_humidity;BME280_pressure;Samples;Min_cycle;Max_cycle;Signal;HPM_P1;HPM_P2
2021/08/05 00:00:11;;;;;;;5.90;2.90;;;;;;;;;;4985889;28;20581;-93
2021/08/05 00:02:38;;;;;;;4.67;3.23;;;;;;;;;;4985601;28;20510;-92
2021/08/05 00:05:10;;;;;;;4.23;3.20;;;;;;;;;;4985437;28;20938;-94
2021/08/05 00:07:38;;;;;;;5.07;3.27;;;;;;;;;;4986248;28;20466;-94
2021/08/05 00:10:07;;;;;;;4.37;3.50;;;;;;;;;;4986428;28;20442;-95
2021/08/05 00:12:34;;;;;;;4.93;3.93;;;;;;;;;;4985226;28;20454;-95
2021/08/05 00:15:01;;;;;;;4.93;3.80;;;;;;;;;;4985509;28;20484;-95
2021/08/05 00:17:30;;;;;;;5.10;4.30;;;;;;;;;;4986093;28;20458;-94
2021/08/05 00:19:59;;;;;;;4.20;3.80;;;;;;;;;;4985296;28;20457;-95
2021/08/05 00:22:26;;;;;;;5.37;4.20;;;;;;;;;;4984242;28;20447;-95
2021/08/05 00:24:54;;;;;;;3.60;3.30;;;;;;;;;;4984591;28;20465;-96
2021/08/05 00:27:21;;;;;;;5.37;3.53;;;;;;;;;;4984188;28;20458;-94
2021/08/05 00:29:50;;;;;;;5.10;3.57;;;;;;;;;;4984221;28;20456;-94
2021/08/05 00:32:17;;;;;;;11.60;3.50;;;;;;;;;;4984545;28;20474;-95
2021/08/05 00:34:46;;;;;;;4.57;3.60;;;;;;;;;;4984110;28;20451;-95
2021/08/05 00:37:14;;;;;;;3.77;3.33;;;;;;;;;;4984702;28;20454;-93
2021/08/05 00:39:42;;;;;;;3.60;3.00;;;;;;;;;;4985308;28;20549;-93
2021/08/05 00:42:09;;;;;;;3.70;3.40;;;;;;;;;;4985428;28;20430;-93
2021/08/05 00:44:39;;;;;;;3.73;3.43;;;;;;;;;;4987265;28;20789;-95
2021/08/05 00:47:07;;;;;;;3.90;2.93;;;;;;;;;;4985607;28;20488;-93
2021/08/05 00:49:35;;;;;;;2.80;2.60;;;;;;;;;;4985694;28;20484;-94
2021/08/05 00:52:06;;;;;;;5.10;3.10;;;;;;;;;;4984976;28;20540;-93
2021/08/05 00:54:34;;;;;;;3.77;3.47;;;;;;;;;;4984967;28;20467;-92
2021/08/05 00:57:01;;;;;;;7.23;3.83;;;;;;;;;;4984493;28;20581;-94
2021/08/05 00:59:28;;;;;;;3.73;3.30;;;;;;;;;;4984918;28;20446;-95
2021/08/05 01:02:03;;;;;;;4.00;3.50;;;14.50;99.90;;;;;;4985835;28;20502;-93
2021/08/05 01:04:33;;;;;;;4.67;3.23;;;;;;;;;;4986532;28;20474;-92
2021/08/05 01:07:06;;;;;;;3.73;2.80;;;14.40;99.90;;;;;;4995461;28;20474;-94
2021/08/05 01:13:04;;;;;;;5.60;3.10;;;14.50;99.90;;;;;;4986192;28;20780;-95
2021/08/05 01:15:33;;;;;;;2.97;2.70;;;14.40;99.90;;;;;;4983835;28;20568;-94
2021/08/05 01:18:11;;;;;;;3.80;2.60;;;14.60;99.90;;;;;;4984397;28;20458;-93
2021/08/05 01:20:41;;;;;;;5.80;3.23;;;14.40;99.90;;;;;;4985601;28;20550;-95
2021/08/05 01:23:24;;;;;;;5.03;3.10;;;14.40;99.90;;;;;;4984138;28;20526;-94
2021/08/05 01:25:56;;;;;;;3.50;3.20;;;14.40;99.90;;;;;;4985988;28;20482;-94
2021/08/05 01:28:25;;;;;;;3.03;2.83;;;;;;;;;;4986308;28;20553;-94
2021/08/05 01:30:53;;;;;;;3.07;2.77;;;;;;;;;;4984906;28;20482;-93
2021/08/05 01:33:23;;;;;;;4.47;3.00;;;14.30;99.90;;;;;;4979437;28;20469;-94
2021/08/05 01:35:52;;;;;;;4.23;3.13;;;14.30;99.90;;;;;;4981453;28;20495;-93
2021/08/05 01:38:20;;;;;;;3.50;3.20;;;14.30;99.90;;;;;;4978297;28;20457;-95
2021/08/05 01:40:49;;;;;;;3.37;3.07;;;14.30;99.90;;;;;;4982337;28;20454;-93
2021/08/05 01:43:17;;;;;;;4.13;2.93;;;;;;;;;;4982568;28;20449;-92
2021/08/05 01:45:49;;;;;;;3.70;2.60;;;14.20;99.90;;;;;;4982284;28;20446;-93
2021/08/05 01:48:17;;;;;;;3.97;3.57;;;14.20;99.90;;;;;;4982569;28;20454;-94
2021/08/05 01:50:46;;;;;;;3.07;2.70;;;14.20;99.90;;;;;;4981830;28;20463;-92
2021/08/05 01:53:15;;;;;;;3.20;2.90;;;14.20;99.90;;;;;;4980771;28;20458;-95
2021/08/05 01:55:43;;;;;;;4.00;3.00;;;;;;;;;;4981984;28;20484;-94
2021/08/05 01:58:10;;;;;;;3.43;3.00;;;;;;;;;;4982606;28;20522;-94
2021/08/05 02:00:37;;;;;;;4.40;3.27;;;;;;;;;;4983257;28;20606;-94
2021/08/05 02:03:09;;;;;;;4.87;3.20;;;14.20;99.90;;;;;;4982912;28;20465;-93
2021/08/05 02:05:44;;;;;;;4.00;3.10;;;14.20;99.90;;;;;;4982659;28;20480;-94
2021/08/05 02:08:16;;;;;;;5.13;3.00;;;14.30;99.90;;;;;;4979311;28;20430;-92
2021/08/05 02:10:45;;;;;;;4.27;3.33;;;14.30;99.90;;;;;;4983241;28;20452;-94
2021/08/05 02:13:15;;;;;;;3.30;2.73;;;14.20;99.90;;;;;;4982609;28;20458;-93
2021/08/05 02:15:46;;;;;;;8.90;3.20;;;14.30;99.90;;;;;;4982903;28;20482;-92
2021/08/05 02:18:17;;;;;;;3.00;2.70;;;14.30;99.90;;;;;;4982990;28;20949;-94
2021/08/05 02:20:47;;;;;;;3.10;2.80;;;14.30;99.90;;;;;;4982989;28;20458;-92
2021/08/05 02:23:16;;;;;;;2.93;2.63;;;14.30;99.90;;;;;;4983011;28;21037;-93
2021/08/05 02:25:44;;;;;;;4.17;3.17;;;;;;;;;;4985113;28;21045;-92
2021/08/05 02:28:11;;;;;;;4.10;2.90;;;;;;;;;;4984650;28;20454;-93
2021/08/05 02:30:39;;;;;;;3.17;2.90;;;14.10;99.90;;;;;;4983834;28;20478;-94
2021/08/05 02:33:07;;;;;;;3.60;2.70;;;14.10;99.90;;;;;;4984495;28;20541;-93
2021/08/05 02:35:39;;;;;;;3.40;2.97;;;14.10;99.90;;;;;;4983955;28;20465;-93
2021/08/05 02:38:07;;;;;;;3.50;2.93;;;;;;;;;;4982637;28;20490;-92
2021/08/05 02:40:36;;;;;;;5.17;3.43;;;14.00;99.90;;;;;;4982633;28;20455;-94
2021/08/05 02:43:04;;;;;;;4.30;3.90;;;14.00;99.90;;;;;;4983572;28;20849;-95
2021/08/05 02:45:31;;;;;;;4.23;2.93;;;;;;;;;;4983756;28;20456;-94
2021/08/05 02:48:00;;;;;;;4.10;3.23;;;14.00;99.90;;;;;;4984200;28;20992;-94
2021/08/05 02:50:28;;;;;;;5.20;3.70;;;;;;;;;;4981983;28;20455;-94
2021/08/05 02:52:58;;;;;;;5.23;3.07;;;;;;;;;;4982396;28;20455;-94
2021/08/05 02:55:26;;;;;;;7.97;3.20;;;;;;;;;;4982686;28;20545;-94
2021/08/05 02:57:53;;;;;;;4.90;3.53;;;;;;;;;;4983001;28;21045;-93
2021/08/05 03:00:21;;;;;;;4.80;3.10;;;;;;;;;;4982721;28;20481;-93
2021/08/05 03:02:48;;;;;;;6.70;3.70;;;;;;;;;;4983285;28;20534;-92
2021/08/05 03:05:17;;;;;;;3.70;3.20;;;14.00;99.90;;;;;;4983701;28;20484;-93
2021/08/05 03:07:44;;;;;;;4.50;3.03;;;;;;;;;;4983246;28;20545;-95
2021/08/05 03:10:18;;;;;;;9.67;3.63;;;14.00;99.90;;;;;;4984356;28;20458;-92
2021/08/05 03:12:45;;;;;;;7.23;3.60;;;;;;;;;;4983899;28;20463;-93
2021/08/05 03:15:16;;;;;;;4.10;3.57;;;;;;;;;;4984052;28;20565;-94
2021/08/05 03:17:43;;;;;;;9.87;3.73;;;;;;;;;;4983961;28;20553;-95
2021/08/05 03:20:16;;;;;;;6.77;3.67;;;14.00;99.90;;;;;;4984856;28;20462;-92
2021/08/05 03:22:44;;;;;;;4.73;3.70;;;;;;;;;;4980705;28;20466;-95
2021/08/05 03:25:11;;;;;;;5.70;3.80;;;;;;;;;;4983823;28;20481;-92
2021/08/05 03:27:40;;;;;;;3.70;3.37;;;;;;;;;;4984576;28;20450;-92
2021/08/05 03:30:09;;;;;;;6.73;3.77;;;14.00;99.90;;;;;;4984422;28;20450;-92
2021/08/05 03:32:37;;;;;;;5.30;4.90;;;;;;;;;;4981963;28;20457;-94
2021/08/05 03:35:04;;;;;;;5.40;3.73;;;;;;;;;;4985292;28;20450;-93
2021/08/05 03:37:32;;;;;;;6.13;3.93;;;;;;;;;;4987568;28;20486;-94
2021/08/05 03:40:02;;;;;;;5.30;3.63;;;;;;;;;;4987170;28;20454;-93
2021/08/05 03:42:29;;;;;;;5.93;4.30;;;;;;;;;;4983902;28;20427;-93
2021/08/05 03:44:59;;;;;;;3.97;3.53;;;;;;;;;;4984024;28;20457;-94
2021/08/05 03:47:27;;;;;;;7.40;4.00;;;;;;;;;;4983874;28;20965;-92
2021/08/05 03:49:54;;;;;;;6.00;3.93;;;;;;;;;;4982952;28;20458;-94
2021/08/05 03:52:21;;;;;;;5.93;4.37;;;;;;;;;;4982507;28;20446;-94
2021/08/05 03:54:48;;;;;;;4.63;4.00;;;;;;;;;;4983942;28;20531;-94
2021/08/05 03:57:15;;;;;;;5.13;4.13;;;;;;;;;;4991375;28;20482;-93
2021/08/05 03:59:43;;;;;;;5.40;4.27;;;;;;;;;;4998279;28;20454;-94
2021/08/05 04:02:12;;;;;;;4.10;3.70;;;;;;;;;;4987129;28;20469;-92
2021/08/05 04:04:41;;;;;;;4.43;4.03;;;;;;;;;;4984874;28;20530;-92
2021/08/05 04:07:08;;;;;;;4.80;4.03;;;;;;;;;;4983883;28;20462;-93
2021/08/05 04:09:36;;;;;;;6.87;4.83;;;;;;;;;;4983852;28;20447;-93
2021/08/05 04:12:03;;;;;;;9.83;5.20;;;;;;;;;;4983792;28;20457;-93
2021/08/05 04:14:31;;;;;;;10.67;4.53;;;;;;;;;;4983820;28;20469;-93
2021/08/05 04:16:59;;;;;;;7.30;4.80;;;;;;;;;;4962353;28;20497;-92
2021/08/05 04:19:30;;;;;;;8.87;4.87;;;;;;;;;;4990493;23;20486;-93
2021/08/05 04:21:57;;;;;;;6.33;5.00;;;;;;;;;;4984498;28;20909;-92
2021/08/05 04:24:25;;;;;;;7.73;5.47;;;;;;;;;;4982995;28;20454;-92
2021/08/05 04:26:53;;;;;;;6.37;4.77;;;;;;;;;;4982658;28;20522;-93
2021/08/05 04:29:20;;;;;;;5.60;4.57;;;;;;;;;;4983678;28;20430;-92
2021/08/05 04:31:47;;;;;;;5.00;4.50;;;;;;;;;;4985284;28;20442;-93
2021/08/05 04:34:15;;;;;;;5.47;4.90;;;;;;;;;;4983433;28;20435;-93
2021/08/05 04:36:44;;;;;;;8.83;4.60;;;;;;;;;;4984492;28;20482;-95
2021/08/05 04:39:14;;;;;;;6.33;4.10;;;14.20;99.90;;;;;;4984676;28;20457;-92
2021/08/05 04:41:41;;;;;;;5.60;4.53;;;;;;;;;;4985277;28;20458;-91
2021/08/05 04:44:10;;;;;;;5.73;4.50;;;;;;;;;;4986439;28;20450;-95
2021/08/05 04:46:38;;;;;;;5.13;4.50;;;;;;;;;;4986915;28;20465;-93
2021/08/05 04:49:06;;;;;;;4.73;4.23;;;14.30;99.90;;;;;;4985201;28;20462;-95
2021/08/05 04:51:33;;;;;;;5.97;4.00;;;;;;;;;;4988027;28;20454;-93
2021/08/05 04:54:03;;;;;;;6.47;4.30;;;;;;;;;;4989440;28;20537;-94
2021/08/05 04:56:30;;;;;;;9.70;4.60;;;;;;;;;;4989601;28;20477;-93
2021/08/05 04:58:59;;;;;;;5.37;4.60;;;;;;;;;;4989555;28;20509;-92
2021/08/05 05:01:26;;;;;;;6.93;4.57;;;;;;;;;;4991267;28;20458;-92
2021/08/05 05:03:53;;;;;;;5.30;4.80;;;;;;;;;;4989668;28;20446;-93
2021/08/05 05:06:24;;;;;;;8.80;4.47;;;14.50;99.90;;;;;;4986620;28;20458;-92
2021/08/05 05:08:51;;;;;;;5.87;4.20;;;;;;;;;;4988188;28;20517;-95
2021/08/05 05:11:20;;;;;;;4.03;3.63;;;;;;;;;;4991130;28;20514;-93
2021/08/05 05:13:49;;;;;;;4.83;4.43;;;;;;;;;;4989544;28;20430;-93
2021/08/05 05:16:17;;;;;;;5.93;4.63;;;;;;;;;;4991316;28;20466;-93
2021/08/05 05:18:44;;;;;;;6.97;5.10;;;;;;;;;;4989213;28;20485;-92
2021/08/05 05:21:11;;;;;;;8.47;5.23;;;;;;;;;;4990213;28;20454;-93
2021/08/05 05:23:59;;;;;;;9.03;6.03;;;;;;;;;;4988932;28;20540;-93
2021/08/05 05:26:34;;;;;;;6.80;5.17;;;14.50;99.90;;;;;;4950529;29;20459;-95
2021/08/05 05:29:02;;;;;;;5.60;5.00;;;;;;;;;;4951621;29;20455;-94
2021/08/05 05:31:29;;;;;;;5.77;5.17;;;;;;;;;;4946511;29;20475;-92
2021/08/05 05:33:58;;;;;;;7.23;5.30;;;;;;;;;;4947995;29;20570;-94
2021/08/05 05:36:26;;;;;;;5.63;5.03;;;;;;;;;;4947562;29;20458;-94
2021/08/05 05:38:54;;;;;;;5.70;5.10;;;;;;;;;;4942293;29;20459;-93
2021/08/05 05:41:21;;;;;;;6.47;5.23;;;;;;;;;;4945067;29;20489;-93
2021/08/05 05:43:50;;;;;;;5.17;4.67;;;;;;;;;;4965061;28;20472;-93
2021/08/05 05:46:17;;;;;;;4.77;4.37;;;;;;;;;;4983680;28;20477;-93
2021/08/05 05:48:45;;;;;;;8.03;4.77;;;;;;;;;;5002448;23;20493;-92
2021/08/05 05:51:14;;;;;;;7.07;4.67;;;;;;;;;;5002671;28;20463;-92
2021/08/05 05:53:42;;;;;;;16.43;5.30;;;;;;;;;;5002973;28;20473;-93
2021/08/05 05:56:10;;;;;;;6.13;5.03;;;;;;;;;;5002628;28;20455;-93
2021/08/05 05:58:37;;;;;;;5.80;5.20;;;;;;;;;;5003085;28;20567;-93
2021/08/05 06:01:06;;;;;;;4.70;4.13;;;;;;;;;;5002203;28;20461;-92
2021/08/05 06:03:36;;;;;;;4.10;3.70;;;;;;;;;;5001629;28;20441;-95
2021/08/05 06:06:11;;;;;;;8.53;4.10;;;;;;;;;;5003094;28;20453;-93
2021/08/05 06:08:38;;;;;;;3.70;3.40;;;;;;;;;;4996663;28;20477;-95
2021/08/05 06:11:05;;;;;;;4.77;3.40;;;;;;;;;;4978965;28;20462;-94
2021/08/05 06:13:33;;;;;;;6.40;3.30;;;;;;;;;;4980426;28;20494;-93
2021/08/05 06:16:00;;;;;;;3.40;3.10;;;;;;;;;;4976638;28;20906;-93
2021/08/05 06:18:29;;;;;;;3.90;3.50;;;;;;;;;;4983369;28;20478;-94
2021/08/05 06:20:56;;;;;;;4.23;3.40;;;;;;;;;;4982790;28;20460;-95
2021/08/05 06:23:23;;;;;;;4.50;3.47;;;;;;;;;;4978037;28;20455;-93
2021/08/05 06:25:50;;;;;;;7.80;3.63;;;;;;;;;;4978950;28;20462;-90
2021/08/05 06:28:17;;;;;;;7.43;3.10;;;;;;;;;;4995921;28;20457;-91
2021/08/05 06:30:45;;;;;;;5.60;3.50;;;;;;;;;;4995179;28;20515;-91
2021/08/05 06:33:12;;;;;;;8.50;3.73;;;;;;;;;;4995592;28;20813;-90
2021/08/05 06:35:41;;;;;;;7.67;3.07;;;;;;;;;;4998795;28;20456;-91
2021/08/05 06:38:10;;;;;;;6.73;3.40;;;;;;;;;;4997284;23;20493;-92
2021/08/05 06:40:37;;;;;;;4.23;2.87;;;;;;;;;;5035049;23;20751;-92
2021/08/05 06:43:17;;;;;;;3.07;2.77;;;18.20;99.90;;;;;;4964778;29;20443;-91
2021/08/05 06:48:26;;;;;;;7.47;3.70;;;;;;;;;;4972800;28;20543;-91
2021/08/05 06:50:54;;;;;;;3.97;3.10;;;;;;;;;;4962046;29;20455;-91
2021/08/05 06:53:22;;;;;;;2.60;2.40;;;;;;;;;;4965485;29;20479;-92
2021/08/05 06:55:49;;;;;;;3.60;2.50;;;;;;;;;;4968073;28;20451;-93
2021/08/05 06:58:20;;;;;;;4.90;2.73;;;;;;;;;;4959143;29;20574;-93
2021/08/05 07:00:47;;;;;;;5.20;3.73;;;;;;;;;;4964436;28;20466;-92
2021/08/05 07:03:15;;;;;;;3.70;2.10;;;;;;;;;;4965045;28;20463;-93
2021/08/05 07:05:42;;;;;;;3.83;2.40;;;;;;;;;;4962169;28;20461;-93
2021/08/05 07:08:11;;;;;;;4.77;2.37;;;;;;;;;;4961707;28;20862;-93
2021/08/05 07:10:38;;;;;;;2.70;2.20;;;;;;;;;;4965582;28;20456;-95
2021/08/05 07:13:06;;;;;;;3.20;2.90;;;18.10;99.90;;;;;;4966013;28;20481;-91
2021/08/05 07:15:34;;;;;;;5.97;2.50;;;;;;;;;;4960040;28;20459;-90
2021/08/05 07:18:01;;;;;;;2.77;2.47;;;;;;;;;;4960908;28;20478;-91
2021/08/05 07:20:28;;;;;;;3.53;2.47;;;;;;;;;;4962107;29;20446;-93
2021/08/05 07:22:55;;;;;;;5.07;2.63;;;;;;;;;;4958766;29;20448;-92
2021/08/05 07:25:25;;;;;;;3.20;2.53;;;;;;;;;;4959865;29;20440;-92
2021/08/05 07:28:01;;;;;;;3.00;2.50;;;;;;;;;;4963016;29;20444;-91
2021/08/05 07:30:29;;;;;;;5.37;2.53;;;;;;;;;;4962378;28;20462;-91
2021/08/05 07:32:58;;;;;;;2.50;2.30;;;18.50;99.90;;;;;;4966398;28;20470;-93
2021/08/05 07:35:26;;;;;;;4.83;2.77;;;;;;;;;;4987792;23;20490;-90
2021/08/05 07:37:53;;;;;;;3.00;2.70;;;;;;;;;;4982077;28;20486;-92
2021/08/05 07:40:20;;;;;;;3.93;2.90;;;;;;;;;;4979360;28;20450;-88
2021/08/05 07:42:49;;;;;;;4.07;2.90;;;18.40;99.90;;;;;;4977591;28;20446;-90
2021/08/05 07:45:17;;;;;;;5.53;2.50;;;18.20;99.90;;;;;;4973880;28;20446;-92
2021/08/05 07:47:48;;;;;;;2.23;2.03;;;;;;;;;;4979454;28;20526;-89
2021/08/05 07:50:15;;;;;;;3.47;2.70;;;;;;;;;;4979603;28;20541;-89
2021/08/05 07:52:43;;;;;;;3.60;2.50;;;;;;;;;;4977258;28;20818;-88
2021/08/05 07:55:10;;;;;;;3.47;2.50;;;18.80;99.90;;;;;;4978035;28;20450;-87
2021/08/05 07:57:38;;;;;;;2.73;2.53;;;;;;;;;;4978235;28;20486;-88
2021/08/05 08:00:08;;;;;;;3.40;2.83;;;19.00;99.90;;;;;;4977286;28;20459;-90
2021/08/05 08:02:35;;;;;;;3.60;2.67;;;;;;;;;;4975217;28;20462;-88
2021/08/05 08:05:02;;;;;;;3.47;3.17;;;;;;;;;;4977423;28;20461;-89
2021/08/05 08:07:30;;;;;;;2.97;2.20;;;;;;;;;;4971360;28;20454;-89
2021/08/05 08:09:57;;;;;;;5.37;2.67;;;;;;;;;;4977629;28;20446;-88
2021/08/05 08:12:24;;;;;;;2.50;2.30;;;;;;;;;;4974775;28;20450;-89
2021/08/05 08:14:51;;;;;;;2.60;2.30;;;;;;;;;;4973902;28;20464;-91
2021/08/05 08:17:19;;;;;;;5.27;2.50;;;18.90;99.90;;;;;;4976739;28;20950;-89
2021/08/05 08:19:46;;;;;;;3.43;2.50;;;;;;;;;;4976422;28;20545;-87
2021/08/05 08:22:13;;;;;;;4.20;2.77;;;;;;;;;;4978733;28;20446;-88
2021/08/05 08:24:40;;;;;;;3.10;2.57;;;;;;;;;;4968618;28;20958;-89
2021/08/05 08:27:08;;;;;;;2.40;2.20;;;;;;;;;;4979066;28;20443;-88
2021/08/05 08:29:34;;;;;;;2.67;2.30;;;18.90;99.90;;;;;;4973334;28;20450;-88
2021/08/05 08:32:03;;;;;;;4.87;2.53;;;;;;;;;;4980330;28;20435;-93
2021/08/05 08:34:36;;;;;;;8.97;2.70;;;;;;;;;;4975855;28;20453;-91
2021/08/05 08:37:03;;;;;;;2.47;2.27;;;;;;;;;;4934331;29;20487;-90
2021/08/05 08:39:30;;;;;;;3.80;2.63;;;;;;;;;;4938156;29;20495;-92
2021/08/05 08:41:59;;;;;;;3.73;2.77;;;;;;;;;;4940594;29;20443;-91
2021/08/05 08:44:26;;;;;;;2.90;2.60;;;;;;;;;;4941969;29;20456;-91
2021/08/05 08:46:58;;;;;;;2.80;2.40;;;18.80;99.90;;;;;;4915771;29;20452;-93
2021/08/05 08:49:34;;;;;;;2.90;2.27;;;20.90;99.90;;;;;;4935217;29;20527;-91
2021/08/05 08:52:07;;;;;;;2.37;2.17;;;20.10;99.90;;;;;;4952642;29;20514;-92
2021/08/05 08:54:34;;;;;;;2.87;2.57;;;;;;;;;;4961419;28;20445;-92
2021/08/05 08:57:02;;;;;;;2.50;2.10;;;;;;;;;;4991877;28;20471;-92
2021/08/05 08:59:29;;;;;;;2.50;2.30;;;;;;;;;;4987042;28;20498;-90
2021/08/05 09:02:07;;;;;;;2.30;2.10;;;22.60;99.90;;;;;;4990384;28;20826;-94
2021/08/05 09:04:35;;;;;;;2.80;2.53;;;23.00;99.90;;;;;;4983544;28;20460;-94
2021/08/05 09:07:04;;;;;;;5.07;2.17;;;22.80;99.90;;;;;;4981966;28;20544;-92
2021/08/05 09:09:31;;;;;;;1.93;1.80;;;;;;;;;;4967841;29;20924;-91
2021/08/05 09:11:58;;;;;;;2.93;1.60;;;;;;;;;;4961972;29;20466;-92
2021/08/05 09:14:42;;;;;;;1.83;1.60;;;22.10;99.90;;;;;;4960759;29;20443;-93
2021/08/05 09:17:45;;;;;;;1.50;1.40;;;21.90;99.90;;;;;;4961906;29;20957;-91
2021/08/05 09:20:14;;;;;;;6.33;2.47;;;21.70;99.90;;;;;;4982575;28;20501;-92
2021/08/05 09:22:58;;;;;;;3.97;1.87;;;22.30;99.90;;;;;;4987188;28;20469;-93
2021/08/05 09:25:32;;;;;;;1.70;1.60;;;23.10;99.90;;;;;;4987739;28;20477;-94
2021/08/05 09:28:01;;;;;;;2.60;1.80;;;23.80;99.90;;;;;;4988259;28;20460;-93
2021/08/05 09:30:34;;;;;;;2.73;1.63;;;22.00;99.90;;;;;;4984786;28;20442;-93
2021/08/05 09:33:12;;;;;;;1.70;1.60;;;21.00;99.90;;;;;;4983723;28;20446;-91
2021/08/05 09:35:41;;;;;;;1.60;1.50;;;21.80;99.90;;;;;;4968512;28;20477;-95
2021/08/05 09:38:24;;;;;;;1.63;1.10;;;22.50;99.90;;;;;;4976765;28;20962;-91
2021/08/05 09:40:54;;;;;;;1.60;1.40;;;22.30;99.90;;;;;;4976360;28;20465;-92
2021/08/05 09:43:25;;;;;;;2.63;1.70;;;;;;;;;;4979909;28;20433;-93
2021/08/05 09:45:53;;;;;;;2.40;1.90;;;;;;;;;;4982407;28;20466;-94
2021/08/05 09:48:40;;;;;;;2.70;2.00;;;22.10;99.90;;;;;;4978357;28;20466;-93
2021/08/05 09:51:13;;;;;;;2.43;2.10;;;21.90;99.90;;;;;;4977742;28;20482;-93
2021/08/05 09:54:11;;;;;;;2.87;2.07;;;21.50;99.90;;;;;;4975488;28;20465;-95
2021/08/05 09:56:39;;;;;;;2.07;1.87;;;;;;;;;;4911963;29;20460;-94
2021/08/05 09:59:13;;;;;;;3.30;2.03;;;20.60;99.90;;;;;;4963420;28;21002;-92
2021/08/05 10:01:58;;;;;;;1.67;1.30;;;20.60;99.90;;;;;;4979321;28;20820;-93
2021/08/05 10:04:30;;;;;;;1.50;1.30;;;20.70;99.90;;;;;;4979698;28;20815;-93
2021/08/05 10:07:03;;;;;;;1.40;1.30;;;20.60;99.90;;;;;;4974275;28;20450;-93
2021/08/05 10:09:37;;;;;;;1.40;1.30;;;20.50;99.90;;;;;;4979192;28;20933;-94
2021/08/05 10:12:30;;;;;;;1.40;1.27;;;20.50;99.90;;;;;;4977944;28;20462;-94
2021/08/05 10:15:06;;;;;;;2.17;1.50;;;21.70;99.90;;;;;;4982507;28;20472;-94
2021/08/05 10:17:35;;;;;;;1.60;1.50;;;21.50;99.90;;;;;;4977602;28;20450;-93
2021/08/05 10:20:14;;;;;;;1.67;1.57;;;22.90;99.90;;;;;;4982071;28;20485;-95
2021/08/05 10:22:41;;;;;;;1.90;1.50;;;23.00;99.90;;;;;;4981720;28;20462;-91
2021/08/05 10:25:13;;;;;;;2.13;1.40;;;23.40;99.90;;;;;;4980476;28;20446;-94
2021/08/05 10:27:40;;;;;;;1.43;1.30;;;;;;;;;;4984577;28;20468;-93
2021/08/05 10:30:10;;;;;;;1.83;1.33;;;22.70;99.90;;;;;;4981429;28;20803;-94
2021/08/05 10:32:38;;;;;;;1.07;0.90;;;;;;;;;;4975651;28;20449;-93
2021/08/05 10:35:07;;;;;;;1.10;1.00;;;21.60;99.90;;;;;;4979653;28;20451;-94
2021/08/05 10:37:34;;;;;;;0.90;0.90;;;;;;;;;;4979801;28;20942;-90
2021/08/05 10:40:03;;;;;;;1.17;1.07;;;22.00;99.90;;;;;;4979407;28;20486;-95
2021/08/05 10:42:34;;;;;;;1.03;0.97;;;;;;;;;;4983549;28;20450;-94
2021/08/05 10:45:01;;;;;;;1.20;1.10;;;;;;;;;;4979615;28;20835;-92
2021/08/05 10:47:31;;;;;;;0.90;0.90;;;21.60;99.90;;;;;;4982722;28;20469;-91
2021/08/05 10:50:01;;;;;;;1.23;1.13;;;21.00;99.90;;;;;;4979507;28;20454;-91
2021/08/05 10:52:47;;;;;;;1.60;1.00;;;21.50;99.90;;;;;;4978372;28;20489;-92
2021/08/05 10:55:27;;;;;;;2.33;1.73;;;22.40;99.90;;;;;;4957343;29;20451;-92
2021/08/05 10:58:29;;;;;;;2.00;1.23;;;23.40;99.90;;;;;;4956453;29;20943;-90
2021/08/05 11:01:01;;;;;;;1.43;1.33;;;22.30;99.90;;;;;;4957218;29;20454;-92
2021/08/05 11:03:57;;;;;;;1.10;1.00;;;22.10;99.90;;;;;;4969591;28;20549;-91
2021/08/05 11:06:33;;;;;;;1.40;1.30;;;22.10;99.90;;;;;;4978581;28;20454;-93
2021/08/05 11:09:33;;;;;;;3.20;1.63;;;22.10;99.90;;;;;;4983757;28;20469;-94
2021/08/05 11:12:40;;;;;;;1.87;1.27;;;21.90;99.90;;;;;;4979704;28;20824;-93
2021/08/05 11:16:00;;;;;;;2.27;1.80;;;21.40;99.90;;;;;;4982622;28;20450;-90
2021/08/05 11:18:29;;;;;;;1.67;1.57;;;21.50;99.90;;;;;;4974533;28;20977;-89
2021/08/05 11:21:28;;;;;;;1.50;1.10;;;21.80;99.90;;;;;;4976206;28;20462;-91
2021/08/05 11:23:55;;;;;;;1.27;1.10;;;21.20;99.90;;;;;;4976033;28;20450;-89
2021/08/05 11:26:23;;;;;;;1.27;1.17;;;;;;;;;;4976353;28;20827;-90
2021/08/05 11:28:53;;;;;;;1.67;1.57;;;21.50;99.90;;;;;;4977014;28;20452;-90
2021/08/05 11:31:30;;;;;;;1.43;1.33;;;22.00;99.90;;;;;;4976875;28;20458;-93
2021/08/05 11:34:00;;;;;;;2.50;1.00;;;22.30;99.90;;;;;;4978442;28;20533;-92
2021/08/05 11:36:42;;;;;;;1.50;1.40;;;22.70;99.90;;;;;;4975535;28;20493;-91
2021/08/05 11:39:22;;;;;;;2.03;1.53;;;23.00;99.90;;;;;;4974937;28;20525;-90
2021/08/05 11:42:22;;;;;;;1.77;1.67;;;23.20;99.90;;;;;;4974033;28;20458;-92
2021/08/05 11:44:52;;;;;;;1.57;1.47;;;22.90;99.90;;;;;;4977391;28;20438;-92
2021/08/05 11:47:20;;;;;;;2.57;1.30;;;22.30;99.90;;;;;;4976142;28;20566;-90
2021/08/05 11:49:51;;;;;;;1.63;1.53;;;21.80;99.90;;;;;;4976627;28;20457;-90
2021/08/05 11:52:40;;;;;;;1.33;1.23;;;23.40;99.90;;;;;;4975913;28;20853;-93
2021/08/05 11:55:12;;;;;;;2.57;1.53;;;21.90;99.90;;;;;;4984913;28;20459;-95
2021/08/05 11:57:41;;;;;;;2.90;1.30;;;22.20;99.90;;;;;;4981802;28;20465;-92
2021/08/05 12:00:14;;;;;;;2.03;1.40;;;22.70;99.90;;;;;;4976781;28;20499;-91
2021/08/05 12:02:42;;;;;;;1.40;1.30;;;23.30;99.90;;;;;;4978940;28;20835;-92
2021/08/05 12:05:12;;;;;;;2.67;1.43;;;23.20;99.90;;;;;;4976311;28;20434;-95
2021/08/05 12:10:15;;;;;;;2.00;1.57;;;;;;;;;;4929295;29;20474;-92
2021/08/05 12:13:06;;;;;;;1.60;1.50;;;23.80;99.90;;;;;;4925683;29;20459;-92
2021/08/05 12:15:36;;;;;;;2.03;1.50;;;24.60;99.90;;;;;;4926996;29;20504;-94
2021/08/05 12:21:14;;;;;;;1.73;1.27;;;23.80;99.90;;;;;;4932058;29;20445;-94
2021/08/05 12:26:35;;;;;;;1.77;1.30;;;;;;;;;;4985334;28;20476;-94
2021/08/05 12:29:11;;;;;;;1.03;0.93;;;21.60;99.90;;;;;;4987917;28;20540;-94
2021/08/05 12:31:44;;;;;;;1.27;1.13;;;21.10;99.90;;;;;;4982060;28;20965;-93
2021/08/05 12:34:12;;;;;;;1.83;1.30;;;;;;;;;;4974587;28;20442;-94
2021/08/05 12:36:40;;;;;;;2.17;1.10;;;;;;;;;;4976654;28;20489;-96
2021/08/05 12:39:08;;;;;;;1.70;1.50;;;;;;;;;;4976450;28;20489;-94
2021/08/05 12:41:37;;;;;;;1.73;1.37;;;;;;;;;;4974245;28;20462;-95
2021/08/05 12:44:07;;;;;;;1.97;1.20;;;19.80;99.90;;;;;;4976281;28;20464;-91
2021/08/05 12:46:35;;;;;;;2.33;0.87;;;19.50;99.90;;;;;;4975483;28;20465;-91
2021/08/05 12:49:05;;;;;;;2.40;1.00;;;18.90;99.90;;;;;;4974524;28;20442;-89
2021/08/05 12:51:33;;;;;;;1.30;1.20;;;18.50;99.90;;;;;;4974136;28;20505;-91
2021/08/05 12:54:13;;;;;;;1.40;1.30;;;18.20;99.90;;;;;;4975774;28;20458;-91
2021/08/05 12:56:41;;;;;;;1.40;1.30;;;18.00;99.90;;;;;;4977671;28;20438;-90
2021/08/05 12:59:08;;;;;;;1.50;1.40;;;;;;;;;;4973562;28;20489;-92
2021/08/05 13:01:35;;;;;;;1.57;1.47;;;;;;;;;;4974799;28;20474;-92
2021/08/05 13:04:03;;;;;;;1.60;1.50;;;;;;;;;;4976595;28;20454;-90
2021/08/05 13:06:52;;;;;;;5.67;3.30;;;17.70;99.90;;;;;;4977525;28;20925;-91
2021/08/05 13:09:24;;;;;;;1.40;1.30;;;17.70;99.90;;;;;;4954164;29;20566;-90
2021/08/05 13:11:52;;;;;;;3.77;1.00;;;;;;;;;;4957444;29;20451;-93
2021/08/05 13:14:29;;;;;;;2.30;1.10;;;17.70;99.90;;;;;;4956935;29;20458;-90
2021/08/05 13:17:07;;;;;;;2.13;0.93;;;18.00;99.90;;;;;;4954130;29;20470;-91
2021/08/05 13:19:51;;;;;;;1.00;0.87;;;18.30;99.90;;;;;;4953508;29;20505;-90
2021/08/05 13:22:18;;;;;;;1.37;1.13;;;;;;;;;;4956155;29;20455;-91
2021/08/05 13:24:59;;;;;;;2.30;1.10;;;18.60;99.90;;;;;;4954672;29;20475;-91
2021/08/05 13:27:31;;;;;;;4.10;1.30;;;;;;;;;;4957631;28;20954;-91
2021/08/05 13:29:58;;;;;;;2.60;1.50;;;;;;;;;;4959653;28;20451;-90
2021/08/05 13:32:26;;;;;;;3.67;1.80;;;;;;;;;;4957428;29;20981;-90
2021/08/05 13:35:04;;;;;;;1.77;1.23;;;20.90;99.90;;;;;;4959934;29;20444;-91
2021/08/05 13:37:32;;;;;;;1.93;1.20;;;20.90;99.90;;;;;;4959433;28;20900;-91
2021/08/05 13:40:01;;;;;;;2.50;1.10;;;20.90;99.90;;;;;;4960574;29;20490;-89
2021/08/05 13:42:29;;;;;;;1.23;1.00;;;;;;;;;;4961695;28;20454;-90
2021/08/05 13:44:56;;;;;;;1.03;0.90;;;;;;;;;;4978615;28;20454;-89
2021/08/05 13:47:24;;;;;;;0.77;0.70;;;;;;;;;;4978410;28;20462;-89
2021/08/05 13:49:51;;;;;;;0.90;0.80;;;;;;;;;;4974679;28;20478;-90
2021/08/05 13:52:19;;;;;;;1.03;0.80;;;21.60;99.90;;;;;;4978663;28;20457;-90
2021/08/05 13:54:47;;;;;;;0.70;0.70;;;;;;;;;;4978106;28;20799;-93
2021/08/05 13:57:15;;;;;;;1.03;0.90;;;21.30;99.90;;;;;;4977700;28;20469;-93
2021/08/05 13:59:42;;;;;;;1.07;0.97;;;;;;;;;;4974323;28;20489;-92
2021/08/05 14:02:09;;;;;;;1.67;1.00;;;;;;;;;;4978422;28;20450;-89
2021/08/05 14:04:39;;;;;;;1.13;1.00;;;20.80;99.90;;;;;;4976081;28;20502;-89
2021/08/05 14:07:09;;;;;;;1.40;0.80;;;;;;;;;;4977146;28;20439;-89
2021/08/05 14:09:38;;;;;;;2.03;0.90;;;;;;;;;;4976606;28;20947;-89
2021/08/05 14:12:07;;;;;;;1.07;0.97;;;;;;;;;;4979139;28;20505;-91
2021/08/05 14:14:36;;;;;;;2.50;1.20;;;;;;;;;;4979829;28;20442;-93
2021/08/05 14:17:03;;;;;;;1.30;0.93;;;;;;;;;;4977952;28;20434;-94
2021/08/05 14:19:30;;;;;;;2.83;0.90;;;;;;;;;;4977629;28;20481;-92
2021/08/05 14:21:57;;;;;;;1.10;0.93;;;;;;;;;;4978913;28;20437;-92
2021/08/05 14:24:24;;;;;;;1.40;1.10;;;;;;;;;;4981553;28;20481;-94
2021/08/05 14:26:53;;;;;;;0.80;0.80;;;;;;;;;;4975676;28;20474;-94